createdAt,value
2022-08-04T00:00:21.472Z,82.41
2022-08-04T00:02:28.617Z,82.56
2022-08-04T00:04:40.230Z,82.74
2022-08-04T00:06:50.188Z,83.21
2022-08-04T00:08:53.026Z,83.48
2022-08-04T00:10:56.831Z,85.14
2022-08-04T00:13:00.064Z,84.75
2022-08-04T00:15:01.787Z,84.68
2022-08-04T00:17:00.261Z,83.98
2022-08-04T00:19:02.293Z,84.76
2022-08-04T00:21:04.920Z,84.24
2022-08-04T00:23:04.154Z,84.75
2022-08-04T00:25:06.068Z,84.77
2022-08-04T00:27:05.000Z,84.18
2022-08-04T00:29:04.741Z,84.86
2022-08-04T00:31:03.009Z,85.12
2022-08-04T00:33:08.388Z,85.87
2022-08-04T00:35:09.910Z,85.47
2022-08-04T00:37:08.494Z,85.38
2022-08-04T00:39:08.345Z,85.29
2022-08-04T00:41:19.679Z,85.75
2022-08-04T00:43:27.877Z,85.61
2022-08-04T00:46:18.073Z,85.38
2022-08-04T00:48:32.554Z,85.35
2022-08-04T00:50:36.918Z,85.87
2022-08-04T00:52:51.489Z,85.83
2022-08-04T00:55:08.579Z,85.90
2022-08-04T00:57:34.462Z,86.76
2022-08-04T00:59:58.462Z,86.72
2022-08-04T01:02:01.950Z,85.80
2022-08-04T01:04:05.654Z,85.29
2022-08-04T01:06:12.863Z,84.70
2022-08-04T01:08:28.330Z,84.46
2022-08-04T01:10:39.347Z,82.95
2022-08-04T01:13:07.797Z,82.55
2022-08-04T01:15:22.852Z,83.00
2022-08-04T01:17:25.267Z,82.94
2022-08-04T01:19:56.479Z,82.30
2022-08-04T01:22:20.718Z,82.00
2022-08-04T01:24:52.793Z,82.74
2022-08-04T01:27:03.819Z,82.75
2022-08-04T01:29:09.802Z,84.09
2022-08-04T01:31:14.980Z,83.41
2022-08-04T01:33:15.966Z,83.69
2022-08-04T01:35:47.928Z,83.25
2022-08-04T01:37:51.249Z,83.88
2022-08-04T01:40:01.288Z,83.20
2022-08-04T01:42:01.230Z,84.01
2022-08-04T01:44:02.760Z,85.58
2022-08-04T01:46:06.422Z,86.20
2022-08-04T01:48:08.459Z,85.18
2022-08-04T01:50:10.345Z,85.40
2022-08-04T01:52:11.807Z,85.89
2022-08-04T01:54:11.721Z,85.10
2022-08-04T01:56:12.690Z,84.63
2022-08-04T01:58:12.483Z,84.48
2022-08-04T02:00:11.968Z,84.42
2022-08-04T02:02:11.889Z,82.75
2022-08-04T02:04:19.947Z,82.76
2022-08-04T02:06:41.114Z,84.13
2022-08-04T02:08:48.512Z,84.99
2022-08-04T02:10:58.559Z,84.51
2022-08-04T02:13:08.137Z,84.11
2022-08-04T02:15:15.171Z,83.69
2022-08-04T02:17:17.060Z,83.79
2022-08-04T02:19:33.854Z,84.95
2022-08-04T02:21:42.032Z,84.59
2022-08-04T02:23:42.887Z,83.67
2022-08-04T02:25:47.140Z,83.13
2022-08-04T02:27:59.853Z,83.71
2022-08-04T02:30:09.026Z,83.93
2022-08-04T02:32:14.041Z,84.84
2022-08-04T02:34:25.118Z,85.24
2022-08-04T02:36:29.422Z,85.59
2022-08-04T02:38:42.028Z,85.69
2022-08-04T02:40:42.269Z,84.36
2022-08-04T02:42:40.604Z,84.90
2022-08-04T02:44:40.251Z,84.64
2022-08-04T02:46:39.945Z,84.05
2022-08-04T02:48:41.685Z,84.32
2022-08-04T02:50:44.909Z,84.53
2022-08-04T02:52:46.530Z,85.79
2022-08-04T02:54:48.471Z,87.56
2022-08-04T02:56:47.909Z,87.74
2022-08-04T02:58:53.098Z,87.32
2022-08-04T03:00:53.227Z,86.60
2022-08-04T03:03:08.103Z,87.04
2022-08-04T03:05:18.273Z,87.67
2022-08-04T03:07:38.753Z,88.17
2022-08-04T03:10:30.779Z,88.47
2022-08-04T03:13:06.517Z,89.21
2022-08-04T03:15:44.048Z,89.36
2022-08-04T03:18:18.734Z,89.06
2022-08-04T03:20:44.709Z,89.33
2022-08-04T03:23:15.801Z,89.48
2022-08-04T03:25:32.335Z,90.21
2022-08-04T03:28:10.272Z,90.56
2022-08-04T03:30:14.543Z,90.44
2022-08-04T03:32:58.446Z,90.30
2022-08-04T03:35:13.572Z,90.21
2022-08-04T03:37:40.223Z,88.39
2022-08-04T03:40:16.993Z,88.60
2022-08-04T03:42:40.412Z,88.71
2022-08-04T03:45:23.232Z,88.54
2022-08-04T03:47:43.566Z,87.82
2022-08-04T03:50:02.017Z,87.33
2022-08-04T03:52:28.430Z,87.04
2022-08-04T03:55:05.516Z,86.49
2022-08-04T03:57:37.171Z,86.70
2022-08-04T04:00:09.146Z,84.90
2022-08-04T04:02:46.995Z,84.11
2022-08-04T04:04:58.545Z,81.04
2022-08-04T04:07:42.321Z,76.72
2022-08-04T04:10:26.724Z,76.99
2022-08-04T04:13:01.319Z,78.84
2022-08-04T04:15:25.861Z,77.39
2022-08-04T04:17:47.174Z,74.91
2022-08-04T04:20:18.149Z,77.47
2022-08-04T04:22:34.251Z,78.52
2022-08-04T04:25:02.488Z,77.12
2022-08-04T04:27:11.997Z,77.10
2022-08-04T04:29:31.034Z,76.93
2022-08-04T04:31:54.947Z,77.99
2022-08-04T04:34:04.480Z,79.63
2022-08-04T04:36:13.376Z,79.14
2022-08-04T04:38:53.804Z,80.02
2022-08-04T04:41:05.823Z,79.57
2022-08-04T04:43:51.151Z,79.84
2022-08-04T04:45:55.328Z,79.37
2022-08-04T04:48:07.974Z,79.83
2022-08-04T04:50:15.959Z,78.44
2022-08-04T04:52:23.206Z,78.28
2022-08-04T04:54:31.582Z,77.67
2022-08-04T04:56:38.200Z,77.37
2022-08-04T04:58:39.393Z,77.56
2022-08-04T05:00:56.206Z,76.69
2022-08-04T05:03:38.823Z,76.65
2022-08-04T05:05:53.007Z,75.76
2022-08-04T05:08:43.914Z,73.82
2022-08-04T05:10:37.762Z,72.54
2022-08-04T05:14:34.998Z,73.15
2022-08-04T05:15:26.872Z,72.39
2022-08-04T05:17:29.408Z,71.34
2022-08-04T05:19:41.916Z,69.09
2022-08-04T05:21:46.490Z,67.70
2022-08-04T05:23:52.971Z,66.35
2022-08-04T05:25:58.941Z,67.36
2022-08-04T05:28:04.389Z,65.45
2022-08-04T05:30:06.179Z,66.38
2022-08-04T05:32:08.671Z,64.88
2022-08-04T05:34:10.687Z,62.52
2022-08-04T05:36:21.698Z,61.37
2022-08-04T05:38:27.139Z,60.82
2022-08-04T05:40:26.814Z,62.95
2022-08-04T05:42:26.649Z,64.19
2022-08-04T05:44:27.439Z,62.67
2022-08-04T05:46:27.217Z,61.05
2022-08-04T05:48:26.386Z,59.91
2022-08-04T05:50:25.896Z,60.60
2022-08-04T05:52:26.949Z,60.58
2022-08-04T05:54:26.646Z,60.93
2022-08-04T05:56:26.692Z,59.85
2022-08-04T05:58:26.015Z,60.34
2022-08-04T06:00:40.697Z,60.61
2022-08-04T06:02:41.213Z,61.02
2022-08-04T06:04:43.365Z,60.27
2022-08-04T06:06:43.581Z,58.67
2022-08-04T06:08:43.449Z,59.00
2022-08-04T06:10:43.878Z,60.07
2022-08-04T06:12:46.240Z,63.64
2022-08-04T06:14:46.800Z,65.84
2022-08-04T06:16:50.806Z,66.34
2022-08-04T06:20:01.951Z,66.44
2022-08-04T06:21:16.179Z,65.31
2022-08-04T06:23:18.355Z,63.28
2022-08-04T06:25:21.030Z,63.70
2022-08-04T06:27:20.592Z,62.96
2022-08-04T06:29:27.035Z,63.58
2022-08-04T06:32:31.125Z,63.09
2022-08-04T06:34:04.497Z,62.65
2022-08-04T06:36:05.280Z,64.08
2022-08-04T06:38:04.285Z,64.44
2022-08-04T06:40:29.201Z,65.16
2022-08-04T06:42:25.721Z,64.74
2022-08-04T06:44:26.400Z,63.33
2022-08-04T06:46:25.062Z,62.21
2022-08-04T06:48:24.057Z,63.01
2022-08-04T06:51:24.665Z,63.19
2022-08-04T06:52:50.504Z,62.28
2022-08-04T06:54:49.708Z,61.43
2022-08-04T06:56:50.363Z,61.32
2022-08-04T06:58:51.793Z,60.48
2022-08-04T07:00:51.966Z,58.97
2022-08-04T07:02:54.216Z,59.24
2022-08-04T07:04:52.848Z,58.92
2022-08-04T07:06:51.395Z,60.67
2022-08-04T07:08:50.358Z,60.30
2022-08-04T07:10:48.822Z,61.21
2022-08-04T07:12:47.565Z,60.11
2022-08-04T07:14:48.452Z,59.00
2022-08-04T07:16:48.309Z,57.34
2022-08-04T07:18:46.685Z,54.71
2022-08-04T07:20:46.456Z,53.88
2022-08-04T07:22:45.930Z,52.84
2022-08-04T07:24:44.425Z,52.58
2022-08-04T07:26:43.446Z,54.33
2022-08-04T07:28:42.283Z,54.74
2022-08-04T07:30:44.765Z,54.50
2022-08-04T07:32:46.297Z,52.91
2022-08-04T07:34:49.752Z,52.33
2022-08-04T07:36:50.839Z,50.81
2022-08-04T07:38:51.753Z,48.67
2022-08-04T07:40:50.886Z,49.41
2022-08-04T07:42:49.532Z,49.69
2022-08-04T07:45:00.565Z,50.59
2022-08-04T07:47:01.025Z,51.30
2022-08-04T07:48:59.539Z,51.38
2022-08-04T07:50:58.881Z,50.75
2022-08-04T07:53:22.362Z,50.62
2022-08-04T07:55:16.329Z,48.93
2022-08-04T07:57:19.264Z,47.64
2022-08-04T07:59:34.429Z,48.00
2022-08-04T08:01:33.326Z,49.50
2022-08-04T08:03:37.625Z,50.66
2022-08-04T08:05:36.051Z,49.10
2022-08-04T08:07:55.216Z,49.06
2022-08-04T08:09:54.136Z,48.19
2022-08-04T08:12:37.368Z,48.49
2022-08-04T08:14:21.848Z,50.11
2022-08-04T08:16:21.265Z,49.62
2022-08-04T08:18:23.794Z,46.73
2022-08-04T08:20:29.375Z,46.31
2022-08-04T08:22:28.602Z,46.29
2022-08-04T08:24:27.430Z,42.68
2022-08-04T08:26:25.778Z,40.76
2022-08-04T08:28:25.004Z,39.14
2022-08-04T08:30:23.955Z,38.10
2022-08-04T08:32:22.268Z,39.64
2022-08-04T08:34:21.682Z,40.85
2022-08-04T08:36:36.442Z,43.26
2022-08-04T08:38:46.931Z,42.20
2022-08-04T08:40:55.126Z,41.75
2022-08-04T08:44:06.309Z,39.64
2022-08-04T08:46:12.162Z,38.04
2022-08-04T08:48:34.710Z,38.84
2022-08-04T08:50:57.192Z,39.07
2022-08-04T08:53:14.872Z,39.13
2022-08-04T08:55:28.132Z,38.25
2022-08-04T08:57:59.413Z,38.98
2022-08-04T09:00:08.407Z,37.47
2022-08-04T09:02:38.156Z,36.86
2022-08-04T09:05:09.045Z,39.01
2022-08-04T09:07:22.982Z,38.81
2022-08-04T09:09:48.626Z,37.61
2022-08-04T09:11:57.327Z,38.24
2022-08-04T09:13:59.079Z,39.37
2022-08-04T09:16:05.774Z,38.63
2022-08-04T09:18:08.830Z,37.10
2022-08-04T09:20:11.510Z,39.01
2022-08-04T09:22:17.607Z,40.66
2022-08-04T09:24:36.386Z,40.42
2022-08-04T09:26:45.661Z,37.99
2022-08-04T09:28:54.332Z,37.78
2022-08-04T09:31:00.330Z,36.18
2022-08-04T09:33:08.789Z,35.67
2022-08-04T09:35:19.295Z,32.41
2022-08-04T09:37:29.442Z,34.76
2022-08-04T09:39:36.284Z,32.33
2022-08-04T09:41:49.721Z,30.79
2022-08-04T09:44:50.366Z,30.62
2022-08-04T09:46:26.123Z,31.30
2022-08-04T09:48:33.824Z,29.88
2022-08-04T09:50:36.637Z,28.64
2022-08-04T09:52:45.867Z,27.97
2022-08-04T09:54:52.974Z,27.66
2022-08-04T09:56:59.206Z,27.38
2022-08-04T09:59:09.334Z,30.75
2022-08-04T10:01:11.599Z,28.12
2022-08-04T10:03:19.260Z,26.91
2022-08-04T10:05:23.351Z,26.05
2022-08-04T10:07:38.431Z,25.12
2022-08-04T10:09:51.519Z,24.96
2022-08-04T10:12:04.714Z,22.19
2022-08-04T10:14:11.596Z,21.30
2022-08-04T10:16:26.255Z,21.76
2022-08-04T10:18:39.650Z,21.09
2022-08-04T10:20:56.839Z,22.29
2022-08-04T10:23:11.438Z,24.00
2022-08-04T10:25:37.389Z,22.28
2022-08-04T10:27:48.653Z,22.69
2022-08-04T10:29:48.671Z,21.95
2022-08-04T10:31:55.900Z,19.81
2022-08-04T10:34:03.054Z,20.81
2022-08-04T10:36:04.354Z,21.16
2022-08-04T10:38:10.260Z,21.93
2022-08-04T10:40:34.338Z,21.69
2022-08-04T10:42:37.190Z,20.56
2022-08-04T10:44:47.771Z,19.39
2022-08-04T10:46:52.432Z,20.54
2022-08-04T10:48:57.393Z,22.00
2022-08-04T10:51:05.561Z,22.74
2022-08-04T10:53:09.602Z,23.16
2022-08-04T10:55:18.342Z,21.38
2022-08-04T10:57:24.750Z,20.96
2022-08-04T10:59:27.780Z,20.93
2022-08-04T11:02:01.739Z,22.31
2022-08-04T11:03:58.035Z,22.63
2022-08-04T11:05:59.264Z,24.55
2022-08-04T11:08:01.882Z,26.24
2022-08-04T11:10:00.910Z,26.85
2022-08-04T11:12:05.830Z,26.72
2022-08-04T11:14:08.212Z,26.89
2022-08-04T11:16:13.828Z,25.79
2022-08-04T11:18:18.382Z,26.37
2022-08-04T11:20:39.932Z,25.86
2022-08-04T11:22:43.175Z,26.12
2022-08-04T11:24:45.817Z,24.52
2022-08-04T11:26:49.986Z,25.52
2022-08-04T11:29:03.437Z,25.96
2022-08-04T11:31:06.524Z,24.97
2022-08-04T11:33:14.154Z,25.25
2022-08-04T11:35:22.216Z,24.95
2022-08-04T11:37:25.670Z,24.64
2022-08-04T11:39:30.134Z,24.77
2022-08-04T11:41:41.376Z,24.23
2022-08-04T11:44:00.825Z,24.59
2022-08-04T11:46:08.881Z,24.55
2022-08-04T11:48:12.605Z,24.94
2022-08-04T11:50:14.026Z,25.14
2022-08-04T11:52:17.677Z,25.13
2022-08-04T11:54:17.262Z,25.25
2022-08-04T11:56:36.710Z,26.31
2022-08-04T11:58:35.289Z,27.32
2022-08-04T12:00:34.088Z,27.01
2022-08-04T12:02:51.954Z,27.72
2022-08-04T12:04:58.133Z,27.89
2022-08-04T12:07:21.670Z,28.32
2022-08-04T12:09:33.747Z,28.07
2022-08-04T12:11:39.281Z,27.91
2022-08-04T12:13:43.934Z,28.38
2022-08-04T12:15:57.394Z,28.28
2022-08-04T12:18:02.646Z,29.59
2022-08-04T12:20:39.654Z,29.67
2022-08-04T12:22:32.057Z,30.37
2022-08-04T12:24:36.951Z,30.79
2022-08-04T12:26:39.964Z,30.95
2022-08-04T12:29:08.581Z,30.80
2022-08-04T12:31:07.255Z,31.58
2022-08-04T12:33:21.834Z,31.41
2022-08-04T12:35:23.072Z,31.90
2022-08-04T12:37:30.404Z,32.55
2022-08-04T12:39:31.580Z,32.22
2022-08-04T12:41:37.749Z,32.13
2022-08-04T12:43:40.154Z,32.53
2022-08-04T12:45:48.641Z,32.12
2022-08-04T12:47:48.830Z,31.79
2022-08-04T12:49:59.022Z,32.37
2022-08-04T12:52:08.675Z,32.40
2022-08-04T12:54:10.314Z,32.59
2022-08-04T12:56:11.476Z,31.84
2022-08-04T12:58:42.220Z,32.34
2022-08-04T13:00:41.667Z,31.29
2022-08-04T13:02:44.565Z,31.59
2022-08-04T13:04:50.321Z,31.59
2022-08-04T13:06:58.034Z,31.28
2022-08-04T13:08:57.345Z,30.34
2022-08-04T13:10:59.382Z,30.30
2022-08-04T13:12:59.193Z,29.56
2022-08-04T13:15:10.749Z,28.81
2022-08-04T13:17:16.731Z,29.11
2022-08-04T13:19:15.686Z,30.01
2022-08-04T13:21:20.108Z,30.08
2022-08-04T13:23:22.202Z,30.74
2022-08-04T13:26:44.750Z,31.01
2022-08-04T13:27:43.007Z,31.31
2022-08-04T13:29:59.734Z,31.50
2022-08-04T13:32:02.095Z,30.35
2022-08-04T13:34:07.862Z,30.52
2022-08-04T13:36:19.771Z,31.01
2022-08-04T13:38:19.165Z,29.65
2022-08-04T13:40:22.925Z,29.16
2022-08-04T13:42:22.141Z,29.62
2022-08-04T13:44:22.496Z,29.82
2022-08-04T13:46:28.514Z,29.65
2022-08-04T13:48:34.058Z,28.89
2022-08-04T13:50:35.399Z,29.81
2022-08-04T13:52:35.086Z,29.92
2022-08-04T13:54:42.639Z,30.15
2022-08-04T13:56:49.554Z,30.73
2022-08-04T13:58:57.712Z,31.21
2022-08-04T14:01:02.986Z,31.55
2022-08-04T14:03:23.764Z,31.91
2022-08-04T14:05:28.767Z,31.19
2022-08-04T14:07:31.875Z,31.14
2022-08-04T14:09:35.054Z,31.54
2022-08-04T14:12:09.821Z,31.72
2022-08-04T14:13:54.856Z,30.81
2022-08-04T14:16:01.823Z,30.39
2022-08-04T14:18:19.203Z,31.57
2022-08-04T14:20:17.431Z,31.53
2022-08-04T14:22:34.841Z,31.67
2022-08-04T14:24:33.156Z,31.58
2022-08-04T14:26:34.903Z,31.58
2022-08-04T14:29:25.578Z,32.14
2022-08-04T14:30:52.059Z,31.99
2022-08-04T14:34:01.878Z,32.28
2022-08-04T14:35:19.886Z,32.79
2022-08-04T14:37:26.306Z,33.13
2022-08-04T14:39:41.483Z,33.55
2022-08-04T14:41:47.961Z,33.86
2022-08-04T14:43:49.404Z,33.63
2022-08-04T14:45:54.776Z,33.73
2022-08-04T14:47:53.906Z,35.15
2022-08-04T14:49:55.910Z,33.60
2022-08-04T14:51:57.050Z,33.00
2022-08-04T14:53:57.021Z,33.44
2022-08-04T14:55:57.234Z,33.45
2022-08-04T14:58:36.578Z,33.46
2022-08-04T15:00:25.167Z,33.12
2022-08-04T15:02:29.772Z,33.77
2022-08-04T15:04:31.339Z,33.43
2022-08-04T15:06:31.506Z,33.63
2022-08-04T15:08:31.781Z,32.98
2022-08-04T15:10:31.639Z,32.91
2022-08-04T15:12:30.325Z,32.73
2022-08-04T15:14:37.401Z,33.07
2022-08-04T15:16:36.424Z,33.11
2022-08-04T15:18:34.829Z,33.08
2022-08-04T15:20:33.265Z,33.16
2022-08-04T15:22:31.926Z,33.29
2022-08-04T15:24:30.265Z,32.99
2022-08-04T15:26:35.028Z,33.15
2022-08-04T15:28:37.001Z,34.24
2022-08-04T15:30:36.074Z,33.47
2022-08-04T15:32:38.443Z,33.79
2022-08-04T15:34:50.693Z,33.05
2022-08-04T15:36:56.506Z,32.49
2022-08-04T15:39:07.195Z,32.65
2022-08-04T15:41:10.449Z,32.93
2022-08-04T15:43:29.218Z,34.18
2022-08-04T15:46:02.238Z,34.20
2022-08-04T15:48:08.404Z,34.16
2022-08-04T15:50:09.765Z,34.78
2022-08-04T15:52:22.974Z,34.67
2022-08-04T15:54:29.270Z,35.44
2022-08-04T15:57:01.203Z,34.99
2022-08-04T15:59:03.007Z,34.64
2022-08-04T16:01:18.129Z,34.84
2022-08-04T16:03:59.189Z,34.90
2022-08-04T16:05:59.204Z,35.27
2022-08-04T16:07:58.909Z,35.25
2022-08-04T16:10:40.249Z,35.71
2022-08-04T16:12:55.666Z,35.62
2022-08-04T16:14:55.863Z,35.44
2022-08-04T16:16:54.226Z,34.84
2022-08-04T16:18:53.289Z,34.50
2022-08-04T16:20:52.563Z,35.24
2022-08-04T16:22:52.801Z,35.23
2022-08-04T16:24:54.707Z,35.47
2022-08-04T16:26:56.420Z,35.75
2022-08-04T16:28:55.060Z,34.90
2022-08-04T16:31:01.128Z,35.12
2022-08-04T16:33:00.075Z,35.72
2022-08-04T16:35:00.971Z,36.18
2022-08-04T16:37:01.693Z,37.50
2022-08-04T16:39:04.632Z,34.68
2022-08-04T16:41:03.233Z,37.59
2022-08-04T16:43:05.526Z,40.64
2022-08-04T16:45:12.918Z,36.84
2022-08-04T16:47:22.627Z,36.90
2022-08-04T16:49:21.780Z,34.80
2022-08-04T16:51:32.372Z,34.78
2022-08-04T16:53:53.506Z,36.16
2022-08-04T16:55:56.916Z,36.09
2022-08-04T16:57:56.686Z,36.13
2022-08-04T16:59:55.084Z,35.41
2022-08-04T17:01:55.344Z,35.63
2022-08-04T17:03:55.651Z,35.29
2022-08-04T17:06:10.494Z,35.92
2022-08-04T17:10:38.115Z,35.99
2022-08-04T17:12:36.531Z,35.45
2022-08-04T17:14:35.051Z,35.63
2022-08-04T17:16:35.380Z,35.96
2022-08-04T17:18:37.338Z,36.33
2022-08-04T17:20:58.927Z,35.95
2022-08-04T17:24:12.788Z,36.14
2022-08-04T17:25:55.726Z,36.59
2022-08-04T17:28:20.220Z,36.32
2022-08-04T17:30:28.465Z,36.97
2022-08-04T17:32:27.375Z,37.28
2022-08-04T17:34:26.555Z,37.27
2022-08-04T17:36:28.254Z,37.34
2022-08-04T17:38:34.012Z,37.88
2022-08-04T17:40:32.556Z,38.03
2022-08-04T17:42:31.365Z,38.11
2022-08-04T17:44:39.414Z,38.11
2022-08-04T17:46:40.953Z,38.02
2022-08-04T17:48:42.653Z,38.31
2022-08-04T17:50:43.750Z,38.58
2022-08-04T17:52:45.091Z,38.78
2022-08-04T17:54:43.887Z,38.71
2022-08-04T17:56:52.011Z,38.56
2022-08-04T17:59:10.029Z,38.86
2022-08-04T18:01:24.226Z,39.11
2022-08-04T18:03:30.449Z,39.44
2022-08-04T18:05:54.095Z,39.16
2022-08-04T18:08:34.730Z,39.34
2022-08-04T18:10:59.718Z,40.26
2022-08-04T18:13:43.357Z,40.02
2022-08-04T18:15:46.372Z,40.21
2022-08-04T18:18:20.456Z,40.53
2022-08-04T18:20:07.966Z,40.83
2022-08-04T18:22:11.301Z,40.14
2022-08-04T18:24:16.563Z,40.64
2022-08-04T18:26:14.799Z,41.16
2022-08-04T18:28:16.424Z,41.06
2022-08-04T18:30:38.419Z,41.53
2022-08-04T18:32:36.802Z,41.33
2022-08-04T18:34:54.864Z,42.89
2022-08-04T18:36:57.527Z,41.77
2022-08-04T18:38:58.227Z,42.11
2022-08-04T18:40:58.647Z,42.37
2022-08-04T18:42:57.047Z,41.61
2022-08-04T18:44:58.157Z,42.21
2022-08-04T18:47:29.683Z,41.77
2022-08-04T18:50:32.691Z,41.02
2022-08-04T18:51:39.308Z,41.27
2022-08-04T18:53:58.203Z,40.70
2022-08-04T18:55:58.957Z,41.13
2022-08-04T18:58:00.839Z,40.79
2022-08-04T19:00:01.419Z,41.42
2022-08-04T19:02:16.732Z,41.61
2022-08-04T19:04:33.229Z,42.29
2022-08-04T19:06:37.999Z,44.13
2022-08-04T19:08:42.638Z,43.90
2022-08-04T19:10:43.414Z,43.90
2022-08-04T19:12:43.306Z,44.11
2022-08-04T19:14:49.609Z,45.09
2022-08-04T19:16:54.166Z,44.24
2022-08-04T19:18:55.524Z,44.29
2022-08-04T19:20:55.196Z,46.23
2022-08-04T19:24:10.895Z,46.53
2022-08-04T19:25:13.647Z,46.54
2022-08-04T19:27:38.718Z,48.02
2022-08-04T19:29:43.050Z,48.62
2022-08-04T19:31:41.605Z,48.39
2022-08-04T19:33:59.613Z,48.73
2022-08-04T19:35:59.221Z,48.06
2022-08-04T19:38:03.508Z,47.92
2022-08-04T19:40:02.287Z,47.97
2022-08-04T19:42:04.649Z,47.58
2022-08-04T19:44:06.170Z,47.08
2022-08-04T19:46:06.054Z,47.11
2022-08-04T19:48:17.224Z,48.25
2022-08-04T19:50:20.646Z,48.32
2022-08-04T19:52:34.026Z,48.43
2022-08-04T19:54:33.747Z,48.10
2022-08-04T19:56:40.339Z,47.70
2022-08-04T19:58:41.597Z,47.38
2022-08-04T20:03:11.552Z,46.28
2022-08-04T20:05:11.395Z,45.61
2022-08-04T20:07:14.187Z,46.18
2022-08-04T20:09:24.683Z,46.83
2022-08-04T20:11:24.867Z,47.51
2022-08-04T20:13:37.256Z,49.78
2022-08-04T20:15:35.838Z,50.67
2022-08-04T20:18:06.942Z,51.55
2022-08-04T20:19:54.267Z,52.72
2022-08-04T20:21:54.970Z,53.05
2022-08-04T20:23:54.517Z,52.91
2022-08-04T20:25:53.850Z,53.27
2022-08-04T20:27:59.882Z,54.00
2022-08-04T20:29:59.363Z,54.37
2022-08-04T20:32:02.598Z,54.83
2022-08-04T20:34:07.294Z,55.13
2022-08-04T20:36:08.192Z,55.74
2022-08-04T20:38:08.160Z,56.11
2022-08-04T20:40:26.638Z,55.99
2022-08-04T20:42:34.201Z,55.69
2022-08-04T20:44:32.599Z,56.65
2022-08-04T20:46:34.453Z,56.63
2022-08-04T20:48:34.124Z,56.19
2022-08-04T20:50:33.132Z,55.49
2022-08-04T20:52:33.455Z,55.71
2022-08-04T20:54:31.910Z,56.42
2022-08-04T20:58:48.856Z,57.47
2022-08-04T21:00:47.746Z,57.79
2022-08-04T21:02:51.674Z,58.20
2022-08-04T21:04:49.983Z,58.46
2022-08-04T21:06:50.271Z,58.19
2022-08-04T21:08:57.189Z,58.87
2022-08-04T21:10:56.030Z,57.60
2022-08-04T21:12:58.614Z,58.45
2022-08-04T21:15:00.528Z,58.29
2022-08-04T21:17:00.691Z,59.09
2022-08-04T21:18:58.953Z,59.00
2022-08-04T21:21:02.400Z,58.63
2022-08-04T21:23:02.206Z,59.21
2022-08-04T21:25:03.459Z,59.78
2022-08-04T21:27:06.375Z,60.13
2022-08-04T21:29:08.129Z,60.06
2022-08-04T21:31:11.403Z,60.19
2022-08-04T21:33:20.719Z,60.26
2022-08-04T21:35:20.631Z,60.66
2022-08-04T21:37:19.055Z,61.57
2022-08-04T21:39:19.862Z,61.15
2022-08-04T21:41:20.383Z,62.04
2022-08-04T21:43:27.315Z,61.72
2022-08-04T21:45:25.881Z,61.94
2022-08-04T21:47:45.688Z,62.19
2022-08-04T21:49:56.631Z,62.84
2022-08-04T21:51:58.695Z,63.34
2022-08-04T21:53:59.073Z,63.48
2022-08-04T21:56:05.499Z,62.81
2022-08-04T21:58:07.740Z,61.99
2022-08-04T22:00:10.963Z,62.51
2022-08-04T22:02:16.967Z,63.24
2022-08-04T22:04:15.705Z,62.28
2022-08-04T22:06:17.287Z,62.72
2022-08-04T22:08:19.593Z,63.34
2022-08-04T22:10:32.323Z,62.87
2022-08-04T22:12:31.544Z,63.42
2022-08-04T22:14:34.837Z,63.13
2022-08-04T22:16:33.449Z,63.54
2022-08-04T22:18:31.788Z,63.76
2022-08-04T22:20:35.204Z,63.09
2022-08-04T22:22:35.608Z,62.88
2022-08-04T22:24:36.073Z,63.09
2022-08-04T22:26:34.532Z,63.33
2022-08-04T22:28:33.058Z,63.31
2022-08-04T22:30:36.899Z,63.17
2022-08-04T22:32:35.720Z,63.57
2022-08-04T22:34:34.772Z,64.23
2022-08-04T22:36:33.145Z,64.38
2022-08-04T22:38:49.825Z,64.57
2022-08-04T22:40:50.771Z,64.37
2022-08-04T22:42:49.320Z,65.11
2022-08-04T22:44:49.141Z,64.88
2022-08-04T22:46:49.107Z,64.81
2022-08-04T22:48:47.847Z,64.39
2022-08-04T22:50:47.771Z,64.68
2022-08-04T22:52:55.769Z,65.01
2022-08-04T22:54:56.237Z,65.32
2022-08-04T22:56:54.501Z,65.38
2022-08-04T22:58:54.942Z,65.80
2022-08-04T23:00:54.037Z,65.70
2022-08-04T23:02:57.917Z,66.01
2022-08-04T23:04:57.418Z,66.15
2022-08-04T23:06:56.779Z,65.84
2022-08-04T23:08:54.987Z,63.59
2022-08-04T23:10:55.305Z,64.82
2022-08-04T23:12:54.147Z,64.78
2022-08-04T23:14:52.375Z,63.90
2022-08-04T23:16:50.641Z,63.84
2022-08-04T23:18:56.195Z,62.76
2022-08-04T23:20:54.483Z,63.76
2022-08-04T23:22:55.965Z,62.73
2022-08-04T23:24:54.435Z,62.63
2022-08-04T23:26:52.799Z,62.56
2022-08-04T23:28:52.678Z,62.74
2022-08-04T23:30:50.895Z,62.51
2022-08-04T23:32:52.614Z,62.61
2022-08-04T23:34:52.229Z,63.29
2022-08-04T23:36:51.344Z,63.28
2022-08-04T23:38:49.734Z,63.86
2022-08-04T23:40:50.273Z,64.24
2022-08-04T23:42:49.089Z,63.95
2022-08-04T23:44:47.419Z,63.89
2022-08-04T23:46:45.638Z,64.41
2022-08-04T23:48:49.341Z,64.88
2022-08-04T23:50:50.021Z,65.06
2022-08-04T23:52:49.498Z,65.11
2022-08-04T23:54:50.267Z,65.32
2022-08-04T23:56:48.719Z,65.78
2022-08-04T23:58:47.021Z,65.35
